createdAt,value
2019-03-03T00:01:26.731Z,97564.50
2019-03-03T00:06:31.580Z,97562.29
2019-03-03T00:11:36.329Z,97565.75
2019-03-03T00:16:41.068Z,97572.36
2019-03-03T00:21:45.913Z,97564.94
2019-03-03T00:26:50.654Z,97565.39
2019-03-03T00:31:55.400Z,97564.50
2019-03-03T00:37:01.780Z,97561.91
2019-03-03T00:42:18.700Z,97568.89
2019-03-03T00:47:24.982Z,97566.82
2019-03-03T00:52:31.371Z,97560.83
2019-03-03T00:57:54.266Z,97562.91
2019-03-03T01:03:12.771Z,97562.39
2019-03-03T01:08:19.184Z,97557.15
2019-03-03T01:13:25.562Z,97556.22
2019-03-03T01:18:34.911Z,97558.88
2019-03-03T01:23:41.292Z,97558.12
2019-03-03T01:28:47.382Z,97557.41
2019-03-03T01:33:53.641Z,97546.73
2019-03-03T01:38:58.394Z,97560.36
2019-03-03T01:44:03.138Z,97551.91
2019-03-03T01:49:07.874Z,97553.50
2019-03-03T01:54:12.622Z,97556.52
2019-03-03T01:59:17.359Z,97554.78
2019-03-03T02:04:22.209Z,97556.17
2019-03-03T02:09:28.317Z,97553.99
2019-03-03T02:14:33.120Z,97561.63
2019-03-03T02:19:37.863Z,97566.08
2019-03-03T02:24:42.961Z,97568.79
2019-03-03T02:29:47.804Z,97578.30
2019-03-03T02:34:52.842Z,97583.83
2019-03-03T02:39:57.654Z,97586.13
2019-03-03T02:45:02.511Z,97598.80
2019-03-03T02:50:11.744Z,97601.17
2019-03-03T02:55:19.317Z,97597.08
2019-03-03T03:00:24.713Z,97600.22
2019-03-03T03:05:34.067Z,97604.39
2019-03-03T03:10:43.328Z,97603.75
2019-03-03T03:15:53.996Z,97596.56
2019-03-03T03:21:09.694Z,97600.34
2019-03-03T03:26:25.497Z,97601.04
2019-03-03T03:31:34.968Z,97605.45
2019-03-03T03:37:00.585Z,97602.60
2019-03-03T03:42:23.450Z,97603.58
2019-03-03T03:47:29.664Z,97590.25
2019-03-03T03:52:48.116Z,97595.19
2019-03-03T03:57:55.601Z,97593.58
2019-03-03T04:03:01.872Z,97603.44
2019-03-03T04:08:11.134Z,97606.78
2019-03-03T04:13:27.542Z,97609.34
2019-03-03T04:18:36.996Z,97612.50
2019-03-03T04:23:59.761Z,97607.05
2019-03-03T04:29:08.433Z,97619.19
2019-03-03T04:34:21.018Z,97628.25
2019-03-03T04:39:33.543Z,97633.17
2019-03-03T04:44:43.006Z,97632.69
2019-03-03T04:49:49.379Z,97632.70
2019-03-03T04:55:01.813Z,97631.13
2019-03-03T05:00:21.084Z,97637.80
2019-03-03T05:05:36.578Z,97633.34
2019-03-03T05:10:42.949Z,97630.93
2019-03-03T05:16:07.221Z,97637.61
2019-03-03T05:21:11.925Z,97643.52
2019-03-03T05:26:16.748Z,97643.99
2019-03-03T05:31:21.497Z,97649.70
2019-03-03T05:36:26.343Z,97653.03
2019-03-03T05:41:31.075Z,97662.11
2019-03-03T05:46:35.821Z,97667.28
2019-03-03T05:51:40.565Z,97675.63
2019-03-03T05:56:45.227Z,97686.75
2019-03-03T06:01:50.374Z,97694.72
2019-03-03T06:06:55.400Z,97696.41
2019-03-03T06:12:00.379Z,97692.56
2019-03-03T06:17:05.912Z,97702.09
2019-03-03T06:22:10.653Z,97700.84
2019-03-03T06:27:15.426Z,97704.86
2019-03-03T06:32:20.322Z,97702.89
2019-03-03T06:37:26.834Z,97715.88
2019-03-03T06:42:31.680Z,97720.42
2019-03-03T06:47:36.522Z,97733.37
2019-03-03T06:52:41.385Z,97740.75
2019-03-03T06:57:46.107Z,97744.39
2019-03-03T07:02:50.984Z,97742.02
2019-03-03T07:07:55.800Z,97740.95
2019-03-03T07:13:00.555Z,97747.13
2019-03-03T07:18:07.025Z,97751.72
2019-03-03T07:23:12.095Z,97742.23
2019-03-03T07:28:20.887Z,97752.81
2019-03-03T07:33:28.954Z,97752.29
2019-03-03T07:38:38.702Z,97755.58
2019-03-03T07:43:44.364Z,97762.23
2019-03-03T07:48:49.304Z,97756.78
2019-03-03T07:53:54.157Z,97770.30
2019-03-03T07:58:59.196Z,97767.71
2019-03-03T08:04:04.146Z,97767.63
2019-03-03T08:09:10.074Z,97773.28
2019-03-03T08:14:15.290Z,97778.43
2019-03-03T08:19:20.628Z,97783.13
2019-03-03T08:24:25.795Z,97795.03
2019-03-03T08:29:30.682Z,97793.93
2019-03-03T08:34:35.927Z,97809.67
2019-03-03T08:39:41.640Z,97809.71
2019-03-03T08:44:48.029Z,97813.45
2019-03-03T08:49:54.408Z,97811.69
2019-03-03T08:55:01.027Z,97819.13
2019-03-03T09:00:18.123Z,97816.98
2019-03-03T09:05:36.186Z,97818.34
2019-03-03T09:10:42.687Z,97822.98
2019-03-03T09:15:54.869Z,97830.48
2019-03-03T09:21:21.039Z,97836.67
2019-03-03T09:26:45.546Z,97833.77
2019-03-03T09:31:55.630Z,97834.55
2019-03-03T10:31:36.038Z,97809.70
2019-03-03T10:36:45.701Z,97804.49
2019-03-03T10:41:56.485Z,97801.97
2019-03-03T10:47:19.645Z,97804.63
2019-03-03T10:52:33.553Z,97799.50
2019-03-03T10:57:50.125Z,97782.77
2019-03-03T11:02:59.678Z,97787.78
2019-03-03T11:08:07.019Z,97784.71
2019-03-03T11:13:16.242Z,97780.06
2019-03-03T11:18:27.662Z,97776.77
2019-03-03T11:23:50.812Z,97777.38
2019-03-03T11:29:12.549Z,97771.41
2019-03-03T11:34:18.927Z,97765.35
2019-03-03T11:39:31.262Z,97763.27
2019-03-03T11:44:52.285Z,97751.92
2019-03-03T11:50:01.724Z,97748.58
2019-03-03T11:55:21.729Z,97738.02
2019-03-03T12:00:28.123Z,97735.16
2019-03-03T12:05:53.150Z,97723.34
2019-03-03T12:11:10.888Z,97721.14
2019-03-03T12:16:24.561Z,97713.58
2019-03-03T12:21:37.099Z,97712.92
2019-03-03T12:26:46.999Z,97715.27
2019-03-03T12:32:02.086Z,97709.07
2019-03-03T12:37:15.553Z,97709.06
2019-03-03T12:42:27.672Z,97717.00
2019-03-03T12:47:46.869Z,97712.69
2019-03-03T12:52:54.000Z,97708.59
2019-03-03T12:58:10.268Z,97702.55
2019-03-03T13:03:23.018Z,97705.82
2019-03-03T13:08:45.862Z,97703.11
2019-03-03T13:14:04.756Z,97701.58
2019-03-03T13:19:27.913Z,97702.72
2019-03-03T13:24:42.220Z,97699.02
2019-03-03T13:29:48.783Z,97690.87
2019-03-03T13:34:55.183Z,97688.11
2019-03-03T13:40:04.297Z,97689.46
2019-03-03T13:45:12.520Z,97685.45
2019-03-03T13:50:17.798Z,97689.99
2019-03-03T13:55:35.119Z,97686.94
2019-03-03T14:00:41.476Z,97671.36
2019-03-03T14:05:47.288Z,97670.05
2019-03-03T14:10:52.309Z,97673.48
2019-03-03T15:04:46.206Z,97646.36
2019-03-03T15:09:51.174Z,97644.69
2019-03-03T16:15:12.894Z,97652.77
2019-03-03T16:20:21.976Z,97659.20
2019-03-03T16:25:26.898Z,97659.30
2019-03-03T16:30:31.820Z,97662.93
2019-03-03T16:35:37.209Z,97670.58
2019-03-03T16:40:46.099Z,97663.67
2019-03-03T16:45:51.070Z,97665.63
2019-03-03T16:50:57.303Z,97663.29
2019-03-03T16:56:02.301Z,97661.75
2019-03-03T17:01:09.906Z,97666.91
2019-03-03T17:06:16.213Z,97670.79
2019-03-03T17:11:21.358Z,97666.75
2019-03-03T17:16:26.257Z,97671.06
2019-03-03T17:21:31.030Z,97672.64
2019-03-03T17:26:37.043Z,97678.83
2019-03-03T17:31:43.381Z,97675.63
2019-03-03T17:36:49.939Z,97670.20
2019-03-03T17:41:54.925Z,97676.39
2019-03-03T17:47:00.306Z,97675.67
2019-03-03T17:52:05.221Z,97674.97
2019-03-03T17:57:10.939Z,97677.73
2019-03-03T18:02:16.079Z,97683.77
2019-03-03T18:07:22.511Z,97678.05
2019-03-03T18:12:27.449Z,97686.94
2019-03-03T18:17:34.276Z,97678.95
2019-03-03T18:22:43.863Z,97681.56
2019-03-03T18:27:53.311Z,97673.98
2019-03-03T18:33:03.393Z,97672.38
2019-03-03T18:38:12.295Z,97678.61
2019-03-03T18:43:24.063Z,97672.50
2019-03-03T18:48:38.402Z,97671.64
2019-03-03T18:53:44.860Z,97671.08
2019-03-03T18:58:52.798Z,97672.38
2019-03-03T19:04:00.675Z,97675.31
2019-03-03T19:09:08.940Z,97679.02
2019-03-03T19:14:28.584Z,97676.42
2019-03-03T19:19:32.205Z,97677.44
2019-03-03T19:24:39.618Z,97669.28
2019-03-03T19:29:47.474Z,97673.88
2019-03-03T19:34:52.396Z,97671.55
2019-03-03T19:39:58.281Z,97670.38
2019-03-03T19:45:04.656Z,97676.89
2019-03-03T19:50:13.410Z,97679.02
2019-03-03T19:55:20.574Z,97672.75
2019-03-03T20:00:35.603Z,97667.67
2019-03-03T20:05:38.745Z,97668.69
2019-03-03T20:10:43.497Z,97667.31
2019-03-03T20:15:49.180Z,97668.08
2019-03-03T20:20:54.001Z,97666.39
2019-03-03T20:25:59.179Z,97663.50
2019-03-03T20:31:04.518Z,97662.06
2019-03-03T20:36:09.428Z,97663.28
2019-03-03T20:41:14.428Z,97654.84
2019-03-03T20:46:20.163Z,97656.86
2019-03-03T20:51:27.796Z,97651.11
2019-03-03T20:56:32.760Z,97651.73
2019-03-03T21:01:38.619Z,97652.05
2019-03-03T21:06:43.658Z,97657.55
2019-03-03T21:11:48.525Z,97646.34
2019-03-03T21:16:53.167Z,97649.47
2019-03-03T21:21:58.328Z,97643.98
2019-03-03T21:27:03.887Z,97633.56
2019-03-03T21:32:08.606Z,97639.11
2019-03-03T21:37:13.462Z,97642.13
2019-03-03T21:42:18.311Z,97641.06
2019-03-03T21:47:23.542Z,97632.81
2019-03-03T21:52:28.283Z,97630.02
2019-03-03T21:57:34.441Z,97618.62
2019-03-03T22:02:41.071Z,97618.53
2019-03-03T22:07:47.824Z,97614.64
2019-03-03T22:12:53.718Z,97614.37
2019-03-03T22:17:59.069Z,97616.86
2019-03-03T22:23:04.467Z,97622.92
2019-03-03T22:28:09.641Z,97621.51
2019-03-03T22:33:16.094Z,97615.69
2019-03-03T22:38:22.546Z,97621.02
2019-03-03T22:43:27.641Z,97619.02
2019-03-03T22:48:32.954Z,97614.38
2019-03-03T22:53:37.999Z,97615.94
2019-03-03T22:58:45.185Z,97625.52
2019-03-03T23:04:02.430Z,97621.03
2019-03-03T23:09:13.956Z,97619.92
2019-03-03T23:14:29.140Z,97616.64
2019-03-03T23:19:43.083Z,97609.48
2019-03-03T23:25:24.175Z,97613.41
2019-03-03T23:30:29.196Z,97605.32
2019-03-03T23:35:34.269Z,97605.11
2019-03-03T23:40:39.018Z,97599.82
2019-03-03T23:45:43.760Z,97598.44
2019-03-03T23:50:48.601Z,97596.16
2019-03-03T23:55:53.553Z,97592.83
